• Join FlightAware (Why Join?)
  • Login
  • US Flag 
05:02AM EDT


 

Airport Tracker/Info


-or-


 

Live Flight TrackerFlight Track Log ✈ SWA1533 ✈ 10-Apr-2013 ✈ KMHT - KBWI

Flight Track Log - Related Links

Times and Time Zones

All times are in EDT time to prevent confusion due to time zone crossing. See the SWA1533 flight status page for this flight to view local times or setup timezone preferences in your user account.

Time Position Orientation Groundspeed Altitude Reporting Facility
EDT Latitude Longitude Course Direction KTS MPH feet Rate Location/Type
07:27PM 42.9500 -71.4333 324° Northwest 156 180 1,200  Level KA90
07:28PM 42.9667 -71.4500 324° Northwest 172 198 2,000 1,860 Climbing KA90
07:29PM 43.0167 -71.4000 36° Northeast 238 274 4,000 2,280 Climbing KA90
07:30PM 43.0333 -71.3167 75° East 269 310 6,400 2,700 Climbing KA90
07:31PM 43.0578 -71.1358 79° East 329 379 10,900 3,000 Climbing Boston Center
07:32PM 43.0772 -71.0131 78° East 334 384 14,400 3,180 Climbing Boston Center
07:33PM 43.0239 -70.9150 127° Southeast 316 364 17,400 2,400 Climbing Boston Center
07:34PM 42.9444 -70.8972 171° South 257 296 19,200 2,160 Climbing Boston Center
07:35PM 42.8617 -70.9417 201° Southwest 260 299 21,800 2,280 Climbing Boston Center
07:36PM 42.7747 -70.9861 201° Southwest 303 349 23,800 2,100 Climbing Boston Center
07:37PM 42.6772 -71.0308 199° South 335 386 26,000 1,920 Climbing Boston Center
07:38PM 42.5822 -71.0978 207° Southwest 367 422 27,700 1,800 Climbing Boston Center
07:39PM 42.4975 -71.1814 216° Southwest 379 436 29,700 1,980 Climbing Boston Center
07:40PM 42.4131 -71.2703 218° Southwest 390 449 31,700 1,500 Climbing Boston Center
07:41PM 42.3244 -71.3589 216° Southwest 395 455 32,800 1,080 Climbing Boston Center
07:42PM 42.2314 -71.4531 217° Southwest 406 467 33,900 600 Climbing Boston Center
07:43PM 42.1406 -71.5442 217° Southwest 413 475 34,000  Climbing Boston Center
07:44PM 42.0350 -71.6436 215° Southwest 424 488 34,000  Level Boston Center
07:45PM 41.9439 -71.7339 216° Southwest 424 488 34,000  Level Boston Center
07:46PM 41.8528 -71.8242 216° Southwest 419 482 34,000  Level Boston Center
07:47PM 41.7594 -71.9142 216° Southwest 414 476 34,000  Level Boston Center
07:48PM 41.6681 -72.0039 216° Southwest 414 476 34,000  Level Boston Center
07:49PM 41.5744 -72.0933 216° Southwest 414 476 34,000  Level Boston Center
07:50PM 41.4811 -72.1825 216° Southwest 414 476 34,000  Level Boston Center
07:51PM 41.3875 -72.2742 216° Southwest 419 482 34,000  Level Boston Center
07:52PM 41.2936 -72.3628 215° Southwest 419 482 34,000  Level Boston Center
07:53PM 41.1978 -72.4594 217° Southwest 430 495 34,000  Level Boston Center
07:54PM 41.1019 -72.5475 215° Southwest 430 495 34,000  Level Boston Center
07:55PM 41.0019 -72.6436 216° Southwest 436 502 34,000  Level Boston Center
07:56PM 40.9078 -72.7339 216° Southwest 431 496 34,000  Level Boston Center
07:57PM 40.8117 -72.8239 215° Southwest 431 496 34,000  Level Boston Center
07:58PM 40.7219 -72.9028 214° Southwest 431 496 34,000  Level Boston Center
07:59PM 40.6444 -72.9761 216° Southwest 431 496 34,000  Level Boston Center
08:00PM 40.5292 -73.0817 215° Southwest 431 496 34,000 -300 Level Boston Center
08:01PM 40.4369 -73.1708 216° Southwest 431 496 33,500 -720 Descending Boston Center
08:02PM 40.3428 -73.2622 217° Southwest 431 496 32,600 -780 Descending Boston Center
08:03PM 40.2442 -73.3508 214° Southwest 431 496 32,000 -900 Descending Boston Center
08:04PM 40.1475 -73.4417 216° Southwest 431 496 30,900 -1,200 Descending Boston Center
08:05PM 40.0869 -73.4981 215° Southwest 432 497 30,200 -1,080 Descending Washington Center
08:06PM 39.9903 -73.5850 215° Southwest 432 497 29,300 -900 Descending Washington Center
08:07PM 39.8919 -73.6769 216° Southwest 432 497 28,400 -660 Descending Washington Center
08:08PM 39.7933 -73.7686 216° Southwest 439 505 28,000 -240 Descending Washington Center
08:09PM 39.6925 -73.8575 214° Southwest 439 505 28,000  Level Washington Center
08:10PM 39.5897 -73.9489 214° Southwest 445 512 28,000  Level Washington Center
08:11PM 39.4867 -74.0453 216° Southwest 450 518 28,000  Level Washington Center
08:12PM 39.3817 -74.1389 215° Southwest 455 524 28,000 -300 Level Washington Center
08:13PM 39.2786 -74.2322 215° Southwest 461 531 27,400 -1,500 Descending Washington Center
08:14PM 39.1794 -74.3197 214° Southwest 449 517 25,000 -2,400 Descending Washington Center
08:15PM 39.0867 -74.4017 214° Southwest 437 503 22,600 -2,400 Descending Washington Center
08:16PM 38.9978 -74.4806 215° Southwest 411 473 20,300 -2,040 Descending Washington Center
08:17PM 38.9358 -74.5694 228° Southwest 349 402 18,600 -1,260 Descending Washington Center
08:18PM 38.9119 -74.6872 255° West 341 392 17,800 -840 Descending Washington Center
08:19PM 38.8897 -74.7994 256° West 333 383 17,000 -780 Descending Washington Center
08:20PM 38.8675 -74.9144 256° West 327 376 16,300 -540 Descending Washington Center
08:21PM 38.8453 -75.0267 256° West 327 376 16,000 -540 Descending Washington Center
08:22PM 38.8247 -75.1414 257° West 327 376 15,300 -900 Descending Washington Center
08:23PM 38.8086 -75.2533 260° West 327 376 14,300 -660 Descending Washington Center
08:24PM 38.8025 -75.3678 266° West 332 382 14,000 -180 Descending Washington Center
08:25PM 38.7944 -75.4825 265° West 332 382 14,000  Level Washington Center
08:26PM 38.7883 -75.5969 266° West 332 382 14,000 -300 Level Washington Center
08:27PM 38.7797 -75.7142 265° West 332 382 13,400 -840 Descending Washington Center
08:28PM 38.7714 -75.8233 264° West 332 382 12,400 -1,020 Descending Washington Center
08:29PM 38.7628 -75.9325 264° West 327 376 11,400 -720 Descending Washington Center
08:30PM 38.7583 -76.0308 267° West 305 351 11,000 -360 Descending Washington Center
08:31PM 38.7578 -76.1242 270° West 279 321 10,700 -900 Descending Washington Center
08:32PM 38.7533 -76.2172 267° West 270 311 9,300 -1,320 Descending Washington Center
08:33PM 38.7947 -76.2869 307° West 243 280 8,100 -1,200 Descending Washington Center
08:34PM 38.8483 -76.3458 319° Northwest 240 276 6,900 -1,260 Descending Washington Center
08:35PM 38.9003 -76.4025 320° Northwest 240 276 5,600 -1,500 Descending Washington Center
08:35PM 38.9167 -76.4167 326° Northwest 250 288 4,900 -1,200 Descending Potomac TRACON
08:36PM 38.9667 -76.4833 314° West 248 285 4,000 -1,020 Descending Potomac TRACON
08:37PM 39.0333 -76.5333 330° Northwest 251 289 2,900 -900 Descending Potomac TRACON
08:38PM 39.0833 -76.5833 322° Northwest 201 231 2,300 -840 Descending Potomac TRACON
08:39PM 39.1167 -76.6167 322° Northwest 166 191 1,400 -900 Descending Potomac TRACON
08:40PM 39.1500 -76.6500 322° Northwest 152 175 600 -840 Descending Potomac TRACON
08:42PM 39.1667 -76.6667 308° West  Level FlightAware Approximate
08:49PM 39.1754 -76.6683 308° West  Level Estimated
08:50PM 39.1754 -76.6683 308° West  Level Estimated
08:51PM 39.1754 -76.6683 308° West  Level Estimated
08:52PM 39.1754 -76.6683 308° West  Level Estimated
08:53PM 39.1754 -76.6683 308° West  Level Estimated